Ana Sayfa
METAR-TAF:

METAR-TAF

Havaalanları :

Clayton, New Mexico, Amerika Birleşik Devletleri

Enlem: 36-26-54N, Boylam: 103-09-11W, yükseklik: 1513 m

Güncel hava durumu gözlemi

Rapor saat 09:55 UTC de 9 dakika önce yapıldı.
Rüzgar kuzey/kuzeybatıdan 8 kt
Sıcaklık -2°C
Nem 46%
Basınç 1016 hPa
Görüş mesafesi: 16.1 km
11000 ft yükseklikte çok bulutlu

METAR: KCAO 250955Z AUTO 33008KT 10SM OVC110 M02/M12 A3000 RMK AO2 SLP148 T10221117

Saat: 03:04 (10:04 UTC)


TAF: eksik

4.000'den fazla havaalanı için hava durumu gözlemleri ve tahminleri (METAR ve TAF raporları).

Kullanılabilir istasyonlar harita üzerinde sarı ve kırmızı noktalarla gösterilir.

İstasyonun adını görmek için fareyi noktanın üzerinde gezdirin.

Sonrasında hava gözlem ve tahminlerini görmek için tıklayın.

Haritayı değiştirmek için: yaklaştırmak için siyah artı işaretli yeşil düğmeye ve uzaklaştırmak için de eksi işaretli düğmeye hızla tıklayın; bitişik haritalar için yeşil okları kullanın.


METAR-TAF: